createdAt,value
2018-07-12T00:00:55.575Z,85.40
2018-07-12T00:03:26.668Z,85.80
2018-07-12T00:05:55.582Z,85.50
2018-07-12T00:08:25.148Z,85.30
2018-07-12T00:11:05.273Z,85.20
2018-07-12T00:16:12.410Z,85.20
2018-07-12T00:18:41.390Z,85.30
2018-07-12T00:21:14.275Z,85.30
2018-07-12T00:23:53.473Z,85.50
2018-07-12T00:26:20.963Z,85.50
2018-07-12T00:46:04.073Z,85.90
2018-07-12T00:48:34.499Z,86.00
2018-07-12T00:51:02.320Z,86.10
2018-07-12T00:53:35.565Z,86.00
2018-07-12T00:56:04.616Z,86.10
2018-07-12T01:29:22.496Z,86.90
2018-07-12T01:31:50.360Z,86.70
2018-07-12T01:34:22.720Z,86.80
2018-07-12T01:36:53.756Z,86.90
2018-07-12T01:56:37.441Z,87.00
2018-07-12T02:16:15.863Z,86.60
2018-07-12T02:18:44.981Z,86.40
2018-07-12T02:21:13.260Z,86.40
2018-07-12T02:23:40.688Z,86.60
2018-07-12T02:26:09.593Z,86.80
2018-07-12T02:28:37.651Z,86.90
2018-07-12T02:48:16.230Z,86.90
2018-07-12T02:50:47.015Z,86.90
2018-07-12T02:53:16.046Z,86.80
2018-07-12T02:55:44.975Z,86.80
2018-07-12T02:58:14.644Z,86.70
2018-07-12T03:23:53.539Z,86.50
2018-07-12T03:43:32.980Z,86.70
2018-07-12T03:48:34.388Z,86.90
2018-07-12T03:51:04.859Z,86.90
2018-07-12T03:53:32.266Z,87.10
2018-07-12T03:56:12.039Z,87.10
2018-07-12T03:58:42.212Z,87.20
2018-07-12T04:01:09.924Z,87.40
2018-07-12T04:03:39.306Z,87.40
2018-07-12T04:06:10.191Z,87.30
2018-07-12T04:08:37.695Z,87.30
2018-07-12T04:14:36.050Z,87.40
2018-07-12T04:17:03.488Z,87.40
2018-07-12T04:19:34.163Z,87.30
2018-07-12T04:22:03.247Z,87.40
2018-07-12T04:50:14.697Z,87.50
2018-07-12T05:12:51.209Z,87.70
2018-07-12T05:15:21.768Z,87.80
2018-07-12T05:17:49.229Z,87.80
2018-07-12T05:37:25.897Z,87.90
2018-07-12T05:57:12.166Z,88.30
2018-07-12T05:59:54.112Z,88.20
2018-07-12T06:02:26.432Z,88.20
2018-07-12T06:04:55.902Z,88.30
2018-07-12T06:07:35.092Z,88.30
2018-07-12T06:10:06.672Z,88.40
2018-07-12T06:12:43.446Z,88.30
2018-07-12T06:15:16.549Z,88.10
2018-07-12T06:17:46.648Z,88.10
2018-07-12T06:20:35.096Z,88.10
2018-07-12T06:26:13.814Z,88.20
2018-07-12T06:37:59.693Z,88.40
2018-07-12T06:46:16.825Z,88.50
2018-07-12T07:06:06.957Z,88.60
2018-07-12T07:08:36.792Z,88.60
2018-07-12T07:19:40.122Z,88.50
2018-07-12T07:30:46.834Z,88.60
2018-07-12T07:33:15.511Z,88.30
2018-07-12T07:35:45.039Z,88.00
2018-07-12T07:38:14.582Z,87.70
2018-07-12T07:40:47.400Z,87.60
2018-07-12T07:52:14.680Z,87.40
2018-07-12T07:54:43.557Z,87.40
2018-07-12T07:57:14.442Z,87.20
2018-07-12T07:59:42.976Z,87.20
2018-07-12T08:02:13.646Z,87.00
2018-07-12T08:04:42.168Z,86.90
2018-07-12T08:07:10.789Z,86.80
2018-07-12T08:09:39.658Z,86.50
2018-07-12T08:12:08.318Z,86.20
2018-07-12T08:14:36.986Z,85.90
2018-07-12T08:17:13.111Z,85.80
2018-07-12T08:19:44.541Z,85.80
2018-07-12T08:22:13.789Z,86.50
2018-07-12T08:25:02.371Z,85.60
2018-07-12T08:27:42.171Z,85.40
2018-07-12T08:30:23.325Z,85.90
2018-07-12T08:32:52.659Z,85.20
2018-07-12T08:35:21.644Z,85.10
2018-07-12T08:37:50.336Z,85.10
2018-07-12T08:40:19.015Z,85.20
2018-07-12T08:42:47.863Z,85.30
2018-07-12T08:45:16.528Z,85.30
2018-07-12T08:47:45.498Z,85.40
2018-07-12T08:57:03.628Z,85.40
2018-07-12T08:59:44.289Z,85.40
2018-07-12T09:02:57.253Z,85.20
2018-07-12T09:26:38.802Z,83.60
2018-07-12T09:29:18.282Z,83.70
2018-07-12T09:31:47.037Z,83.50
2018-07-12T09:34:15.679Z,82.90
2018-07-12T09:36:44.283Z,82.90
2018-07-12T09:39:12.889Z,82.70
2018-07-12T09:41:41.589Z,83.00
2018-07-12T09:44:14.650Z,82.80
2018-07-12T09:46:53.053Z,83.00
2018-07-12T09:49:23.264Z,83.00
2018-07-12T09:54:43.211Z,82.50
2018-07-12T09:57:22.882Z,82.00
2018-07-12T09:59:54.141Z,81.70
2018-07-12T10:02:27.801Z,81.80
2018-07-12T10:04:56.369Z,82.10
2018-07-12T10:07:30.924Z,82.20
2018-07-12T10:09:59.674Z,82.40
2018-07-12T10:12:28.965Z,82.30
2018-07-12T10:15:03.113Z,82.40
2018-07-12T10:17:41.911Z,82.40
2018-07-12T10:20:10.694Z,83.00
2018-07-12T10:22:39.377Z,82.00
2018-07-12T10:25:08.289Z,81.60
2018-07-12T10:27:36.928Z,81.40
2018-07-12T10:30:05.607Z,81.20
2018-07-12T10:32:34.409Z,81.20
2018-07-12T10:35:03.344Z,81.20
2018-07-12T10:37:33.520Z,80.70
2018-07-12T10:40:06.380Z,80.10
2018-07-12T10:42:36.657Z,80.00
2018-07-12T10:45:05.568Z,79.60
2018-07-12T10:47:34.352Z,80.00
2018-07-12T10:50:03.458Z,80.10
2018-07-12T10:52:32.476Z,80.20
2018-07-12T10:55:01.494Z,80.20
2018-07-12T10:57:30.259Z,79.70
2018-07-12T10:59:59.063Z,79.60
2018-07-12T11:02:27.805Z,79.70
2018-07-12T11:04:56.476Z,79.30
2018-07-12T11:07:25.768Z,78.90
2018-07-12T11:09:57.713Z,78.90
2018-07-12T11:12:27.339Z,78.20
2018-07-12T11:14:56.799Z,77.70
2018-07-12T11:17:35.929Z,77.60
2018-07-12T11:20:05.429Z,77.70
2018-07-12T11:22:34.207Z,77.70
2018-07-12T11:25:04.400Z,77.80
2018-07-12T11:27:34.169Z,77.60
2018-07-12T11:30:02.796Z,77.80
2018-07-12T11:32:31.424Z,77.60
2018-07-12T11:35:12.954Z,78.10
2018-07-12T11:37:41.504Z,77.90
2018-07-12T11:40:10.298Z,77.40
2018-07-12T11:42:39.083Z,77.10
2018-07-12T11:45:07.783Z,77.00
2018-07-12T11:47:36.603Z,77.10
2018-07-12T11:50:05.564Z,77.80
2018-07-12T11:52:34.625Z,77.90
2018-07-12T11:55:03.234Z,77.80
2018-07-12T11:57:32.078Z,77.30
2018-07-12T12:00:00.765Z,76.50
2018-07-12T12:02:32.420Z,76.00
2018-07-12T12:05:02.190Z,75.60
2018-07-12T12:07:30.980Z,76.00
2018-07-12T12:10:03.608Z,76.60
2018-07-12T12:12:36.061Z,76.80
2018-07-12T12:15:11.844Z,76.70
2018-07-12T12:17:40.520Z,76.80
2018-07-12T12:20:10.851Z,76.20
2018-07-12T12:22:39.544Z,75.90
2018-07-12T12:25:12.160Z,75.70
2018-07-12T12:27:41.623Z,75.10
2018-07-12T12:30:11.612Z,74.80
2018-07-12T12:32:40.358Z,74.80
2018-07-12T12:35:09.156Z,75.00
2018-07-12T12:37:48.204Z,74.80
2018-07-12T12:40:17.563Z,74.70
2018-07-12T12:42:46.108Z,74.30
2018-07-12T12:45:14.691Z,74.40
2018-07-12T12:50:34.759Z,74.40
2018-07-12T12:53:06.099Z,73.30
2018-07-12T12:55:39.664Z,72.60
2018-07-12T12:58:09.125Z,72.50
2018-07-12T13:00:39.567Z,72.30
2018-07-12T13:03:23.853Z,72.30
2018-07-12T13:05:52.419Z,72.50
2018-07-12T13:08:29.256Z,71.90
2018-07-12T13:13:37.496Z,71.70
2018-07-12T13:16:10.163Z,71.60
2018-07-12T13:18:42.581Z,71.40
2018-07-12T13:21:32.148Z,71.30
2018-07-12T13:28:39.151Z,70.40
2018-07-12T13:31:13.107Z,70.00
2018-07-12T13:33:41.790Z,69.60
2018-07-12T13:36:10.300Z,69.60
2018-07-12T13:38:38.863Z,69.50
2018-07-12T13:41:07.914Z,69.20
2018-07-12T13:43:36.596Z,68.90
2018-07-12T13:46:05.409Z,68.60
2018-07-12T13:48:34.021Z,68.70
2018-07-12T13:51:02.579Z,68.90
2018-07-12T13:53:39.493Z,68.90
2018-07-12T13:56:08.405Z,69.40
2018-07-12T13:58:37.036Z,69.60
2018-07-12T14:01:06.108Z,69.80
2018-07-12T14:03:35.075Z,69.90
2018-07-12T14:06:06.810Z,70.20
2018-07-12T14:08:35.354Z,70.10
2018-07-12T14:11:03.746Z,70.60
2018-07-12T14:13:32.320Z,70.90
2018-07-12T14:16:00.849Z,70.90
2018-07-12T14:18:29.633Z,71.10
2018-07-12T14:20:58.237Z,71.40
2018-07-12T14:23:26.815Z,71.40
2018-07-12T14:25:55.352Z,71.60
2018-07-12T14:28:24.271Z,71.60
2018-07-12T14:30:52.919Z,72.00
2018-07-12T14:33:21.498Z,72.30
2018-07-12T14:35:50.197Z,72.00
2018-07-12T14:38:19.426Z,71.60
2018-07-12T14:40:48.244Z,71.20
2018-07-12T14:43:17.567Z,70.70
2018-07-12T14:45:47.282Z,70.30
2018-07-12T14:48:15.922Z,70.20
2018-07-12T14:50:44.619Z,69.80
2018-07-12T14:53:13.259Z,69.10
2018-07-12T14:55:42.054Z,69.20
2018-07-12T14:58:10.699Z,69.30
2018-07-12T15:00:39.400Z,69.10
2018-07-12T15:03:08.036Z,68.60
2018-07-12T15:05:36.761Z,67.60
2018-07-12T15:08:05.439Z,67.70
2018-07-12T15:10:35.116Z,67.60
2018-07-12T15:13:03.810Z,67.30
2018-07-12T15:15:32.445Z,66.90
2018-07-12T15:18:01.100Z,66.90
2018-07-12T15:20:29.920Z,66.80
2018-07-12T15:22:58.597Z,66.90
2018-07-12T15:25:27.238Z,66.80
2018-07-12T15:27:55.774Z,66.80
2018-07-12T15:30:24.462Z,66.50
2018-07-12T15:32:53.007Z,66.10
2018-07-12T15:35:21.517Z,65.70
2018-07-12T15:37:50.108Z,65.00
2018-07-12T15:40:18.764Z,64.60
2018-07-12T15:42:47.280Z,64.30
2018-07-12T15:45:16.124Z,64.30
2018-07-12T15:47:44.707Z,64.20
2018-07-12T15:50:13.613Z,63.80
2018-07-12T15:52:42.207Z,63.80
2018-07-12T15:55:10.758Z,63.90
2018-07-12T15:57:39.649Z,63.70
2018-07-12T16:00:08.440Z,63.20
2018-07-12T16:02:37.061Z,62.80
2018-07-12T16:05:05.737Z,62.80
2018-07-12T16:07:34.319Z,62.30
2018-07-12T16:10:02.883Z,62.00
2018-07-12T16:12:31.420Z,61.90
2018-07-12T16:14:59.886Z,61.20
2018-07-12T16:17:28.375Z,60.90
2018-07-12T16:19:57.499Z,60.50
2018-07-12T16:22:26.186Z,60.00
2018-07-12T16:24:54.764Z,60.00
2018-07-12T16:27:23.276Z,60.10
2018-07-12T16:29:52.069Z,59.80
2018-07-12T16:32:20.620Z,59.50
2018-07-12T16:34:49.999Z,59.10
2018-07-12T16:37:18.814Z,58.90
2018-07-12T16:39:47.426Z,56.80
2018-07-12T16:42:15.965Z,57.30
2018-07-12T16:44:44.473Z,57.60
2018-07-12T16:47:13.009Z,57.50
2018-07-12T16:49:41.672Z,57.40
2018-07-12T16:52:10.224Z,57.20
2018-07-12T16:54:39.500Z,58.00
2018-07-12T16:57:08.000Z,58.10
2018-07-12T16:59:42.748Z,57.90
2018-07-12T17:02:11.234Z,57.50
2018-07-12T17:04:41.957Z,57.20
2018-07-12T17:07:10.559Z,56.70
2018-07-12T17:09:39.392Z,56.20
2018-07-12T17:12:08.028Z,55.30
2018-07-12T17:14:36.637Z,54.90
2018-07-12T17:17:06.089Z,54.30
2018-07-12T17:19:34.641Z,55.00
2018-07-12T17:22:03.127Z,55.30
2018-07-12T17:24:31.872Z,55.40
2018-07-12T17:27:00.449Z,56.00
2018-07-12T17:29:29.094Z,56.20
2018-07-12T17:31:58.046Z,56.20
2018-07-12T17:34:26.559Z,56.40
2018-07-12T17:36:55.104Z,56.20
2018-07-12T17:39:23.733Z,56.70
2018-07-12T17:41:52.249Z,57.00
2018-07-12T17:44:20.796Z,56.90
2018-07-12T17:46:49.371Z,57.10
2018-07-12T17:49:17.958Z,57.20
2018-07-12T17:51:46.502Z,57.50
2018-07-12T17:54:15.134Z,57.90
2018-07-12T17:56:43.711Z,58.00
2018-07-12T18:01:55.884Z,58.70
2018-07-12T18:04:24.378Z,59.00
2018-07-12T18:06:53.754Z,59.30
2018-07-12T18:09:22.739Z,59.60
2018-07-12T18:11:52.380Z,59.80
2018-07-12T18:14:21.343Z,59.90
2018-07-12T18:16:50.487Z,60.20
2018-07-12T18:19:19.890Z,60.70
2018-07-12T18:21:49.877Z,61.80
2018-07-12T18:24:19.741Z,61.20
2018-07-12T18:27:10.406Z,61.50
2018-07-12T18:29:41.480Z,61.70
2018-07-12T18:32:15.469Z,61.80
2018-07-12T18:34:51.548Z,61.90
2018-07-12T18:40:31.528Z,62.30
2018-07-12T18:43:01.245Z,63.20
2018-07-12T18:45:30.032Z,62.50
2018-07-12T19:03:10.336Z,62.60
2018-07-12T19:05:38.923Z,62.70
2018-07-12T19:08:07.449Z,63.90
2018-07-12T20:09:08.985Z,67.40
2018-07-12T20:11:40.646Z,67.50
2018-07-12T20:14:18.093Z,67.50
2018-07-12T20:16:48.214Z,67.60
2018-07-12T20:36:31.854Z,68.70
2018-07-12T20:45:05.203Z,69.20
2018-07-12T20:50:37.033Z,69.80
2018-07-12T20:53:10.250Z,70.10
2018-07-12T20:55:51.292Z,70.30
2018-07-12T20:58:20.140Z,70.50
2018-07-12T21:18:00.230Z,70.70
2018-07-12T21:20:31.197Z,71.00
2018-07-12T21:23:02.096Z,71.20
2018-07-12T21:25:39.051Z,71.20
2018-07-12T21:28:12.257Z,71.20
2018-07-12T21:30:42.116Z,71.20
2018-07-12T21:33:17.161Z,71.20
2018-07-12T21:35:52.757Z,71.30
2018-07-12T21:41:07.010Z,71.60
2018-07-12T21:52:16.750Z,72.10
2018-07-12T21:57:23.600Z,72.30
2018-07-12T22:16:56.142Z,72.90
2018-07-12T22:19:25.707Z,72.90
2018-07-12T22:22:03.298Z,73.00
2018-07-12T22:24:31.906Z,73.10
2018-07-12T22:27:01.640Z,73.20
2018-07-12T22:29:30.454Z,73.20
2018-07-12T22:32:01.073Z,73.40
2018-07-12T22:34:29.857Z,73.40
2018-07-12T22:36:58.563Z,73.50
2018-07-12T22:39:27.079Z,73.50
2018-07-12T22:41:56.350Z,73.60
2018-07-12T22:44:25.440Z,73.80
2018-07-12T22:46:54.243Z,73.80
2018-07-12T22:49:23.496Z,74.00
2018-07-12T22:51:53.696Z,74.00
2018-07-12T22:54:22.191Z,74.10
2018-07-12T22:56:51.868Z,74.20
2018-07-12T22:59:20.962Z,74.30
2018-07-12T23:01:50.638Z,74.40
2018-07-12T23:04:19.236Z,74.40
2018-07-12T23:06:48.741Z,74.60
2018-07-12T23:09:17.346Z,74.50
2018-07-12T23:11:52.297Z,74.70
2018-07-12T23:14:21.364Z,74.70
2018-07-12T23:16:49.864Z,74.80
2018-07-12T23:19:20.247Z,74.90
2018-07-12T23:21:49.138Z,74.80
2018-07-12T23:24:17.961Z,74.90
2018-07-12T23:26:47.591Z,74.90
2018-07-12T23:29:16.198Z,75.00
2018-07-12T23:31:44.724Z,74.90
2018-07-12T23:34:14.426Z,75.00
2018-07-12T23:36:43.307Z,75.10
2018-07-12T23:39:12.073Z,75.20
2018-07-12T23:41:41.651Z,75.20
2018-07-12T23:44:10.875Z,75.40
2018-07-12T23:46:39.404Z,75.60
2018-07-12T23:49:08.090Z,75.50
2018-07-12T23:51:36.560Z,75.50
2018-07-12T23:54:24.270Z,75.50
2018-07-12T23:56:53.298Z,75.60
2018-07-12T23:59:22.460Z,75.70
